LFRK/CFR METAR and TAF weather

Enter ICAO airport designator
Station Type Date Time Source
LFRK METAR 2020/03/28 09:00 UTC NOAA

LFRK 280900Z AUTO 03009KT 360V060 5000 BR OVC013 09/06 Q1022 BECMG 04016G27KT


Station Type Date Time Source
LFRK Decoded METAR 2020/03/28 09:00 UTC NOAA

Caen, France (LFRK) 49-11N 000-27W 67M
Mar 28, 2020 - 05:00 AM EDT / 2020.03.28 0900 UTC
Wind: from the NNE (030 degrees) at 10 MPH (9 KT) (direction variable):0
Visibility: 3 mile(s):0
Sky conditions: overcast
Weather: mist
Temperature: 48 F (9 C)
Dew Point: 42 F (6 C)
Relative Humidity: 81%
Pressure (altimeter): 30.18 in. Hg (1022 hPa)
ob: LFRK 280900Z AUTO 03009KT 360V060 5000 BR OVC013 09/06 Q1022 BECMG 04016G27KT
cycle: 9

Station Type Date Time Source
LFRK TAF UTC NOAA

Error!

Example: see airport list